createdAt,value
2022-11-09T00:00:05.748Z,100123.41
2022-11-09T00:02:52.472Z,100124.35
2022-11-09T00:05:19.318Z,100118.34
2022-11-09T00:07:46.175Z,100123.86
2022-11-09T00:10:13.310Z,100122.65
2022-11-09T00:12:40.195Z,100116.11
2022-11-09T00:15:08.332Z,100116.31
2022-11-09T00:17:35.275Z,100119.46
2022-11-09T00:20:02.359Z,100120.54
2022-11-09T00:22:29.195Z,100120.73
2022-11-09T00:24:56.113Z,100115.63
2022-11-09T00:27:22.970Z,100116.71
2022-11-09T00:29:50.078Z,100113.32
2022-11-09T00:32:18.461Z,100106.79
2022-11-09T00:34:45.652Z,100105.44
2022-11-09T00:37:12.525Z,100106.01
2022-11-09T00:39:39.402Z,100109.81
2022-11-09T00:42:07.443Z,100114.48
2022-11-09T00:44:34.312Z,100110.00
2022-11-09T00:47:01.198Z,100108.96
2022-11-09T00:49:28.020Z,100105.16
2022-11-09T00:51:55.074Z,100110.87
2022-11-09T00:54:22.908Z,100111.20
2022-11-09T00:56:49.733Z,100108.25
2022-11-09T00:59:16.986Z,100109.95
2022-11-09T01:01:43.867Z,100104.92
2022-11-09T01:04:10.863Z,100105.25
2022-11-09T01:06:37.976Z,100106.27
2022-11-09T01:09:05.071Z,100105.75
2022-11-09T01:11:31.885Z,100097.96
2022-11-09T01:14:01.232Z,100098.64
2022-11-09T01:16:29.046Z,100103.13
2022-11-09T01:18:58.622Z,100104.16
2022-11-09T01:21:26.380Z,100105.52
2022-11-09T01:23:53.562Z,100101.52
2022-11-09T01:26:20.511Z,100104.60
2022-11-09T01:28:48.019Z,100097.98
2022-11-09T01:31:17.889Z,100099.50
2022-11-09T01:33:45.544Z,100097.79
2022-11-09T01:36:14.517Z,100103.11
2022-11-09T01:38:42.181Z,100098.78
2022-11-09T01:41:12.586Z,100091.89
2022-11-09T01:43:39.422Z,100095.52
2022-11-09T01:46:16.310Z,100094.30
2022-11-09T01:48:49.758Z,100090.35
2022-11-09T01:51:25.627Z,100090.90
2022-11-09T01:53:59.215Z,100085.58
2022-11-09T01:56:27.460Z,100086.99
2022-11-09T01:58:57.092Z,100080.46
2022-11-09T02:01:24.899Z,100075.48
2022-11-09T02:03:56.665Z,100071.54
2022-11-09T02:06:26.861Z,100072.06
2022-11-09T02:08:58.505Z,100073.30
2022-11-09T02:11:29.339Z,100074.91
2022-11-09T02:14:01.870Z,100076.36
2022-11-09T02:16:30.076Z,100074.86
2022-11-09T02:19:00.799Z,100075.09
2022-11-09T02:21:29.873Z,100071.33
2022-11-09T02:23:57.145Z,100072.05
2022-11-09T02:26:29.979Z,100068.14
2022-11-09T02:28:59.243Z,100067.48
2022-11-09T02:31:32.284Z,100064.56
2022-11-09T02:34:04.994Z,100061.31
2022-11-09T02:36:32.233Z,100059.42
2022-11-09T02:39:00.935Z,100059.29
2022-11-09T02:41:29.829Z,100059.66
2022-11-09T02:43:57.627Z,100056.42
2022-11-09T02:46:31.901Z,100056.08
2022-11-09T02:48:58.926Z,100054.89
2022-11-09T02:51:25.801Z,100059.56
2022-11-09T02:53:53.545Z,100056.79
2022-11-09T02:56:21.681Z,100054.19
2022-11-09T02:58:48.683Z,100057.77
2022-11-09T03:01:16.947Z,100062.08
2022-11-09T03:03:44.614Z,100058.80
2022-11-09T03:06:12.815Z,100062.92
2022-11-09T03:08:40.882Z,100062.58
2022-11-09T03:11:08.110Z,100061.55
2022-11-09T03:13:35.446Z,100061.54
2022-11-09T03:16:07.103Z,100062.24
2022-11-09T03:18:36.955Z,100063.30
2022-11-09T03:21:08.041Z,100067.09
2022-11-09T03:23:35.359Z,100071.20
2022-11-09T03:26:02.883Z,100066.01
2022-11-09T03:28:29.833Z,100068.41
2022-11-09T03:30:57.119Z,100065.81
2022-11-09T03:33:24.400Z,100068.40
2022-11-09T03:35:51.461Z,100066.50
2022-11-09T03:38:18.630Z,100066.51
2022-11-09T03:40:46.088Z,100067.02
2022-11-09T03:43:12.949Z,100068.89
2022-11-09T03:45:40.671Z,100066.47
2022-11-09T03:48:08.196Z,100061.97
2022-11-09T03:50:40.284Z,100063.85
2022-11-09T03:53:07.551Z,100061.27
2022-11-09T03:55:34.572Z,100060.23
2022-11-09T03:58:01.619Z,100052.86
2022-11-09T04:00:28.564Z,100055.27
2022-11-09T04:02:55.872Z,100049.09
2022-11-09T04:05:22.826Z,100045.49
2022-11-09T04:07:54.739Z,100042.60
2022-11-09T04:10:22.834Z,100046.90
2022-11-09T04:12:49.929Z,100049.48
2022-11-09T04:15:17.545Z,100042.70
2022-11-09T04:17:44.853Z,100043.50
2022-11-09T04:20:14.023Z,100040.91
2022-11-09T04:22:40.927Z,100047.11
2022-11-09T04:25:09.067Z,100042.69
2022-11-09T04:27:35.867Z,100043.23
2022-11-09T04:30:02.740Z,100043.96
2022-11-09T04:32:29.574Z,100042.41
2022-11-09T04:34:56.400Z,100042.42
2022-11-09T04:37:23.292Z,100046.38
2022-11-09T04:39:50.124Z,100047.26
2022-11-09T04:42:17.007Z,100048.15
2022-11-09T04:44:44.016Z,100043.20
2022-11-09T04:47:11.012Z,100044.80
2022-11-09T04:49:37.899Z,100044.87
2022-11-09T04:52:04.860Z,100044.23
2022-11-09T04:54:31.849Z,100047.52
2022-11-09T04:56:58.735Z,100044.28
2022-11-09T04:59:25.645Z,100044.78
2022-11-09T05:01:52.433Z,100041.84
2022-11-09T05:04:19.419Z,100042.35
2022-11-09T05:06:46.534Z,100046.67
2022-11-09T05:09:13.552Z,100042.35
2022-11-09T05:11:40.515Z,100039.11
2022-11-09T05:14:07.386Z,100038.45
2022-11-09T05:16:34.776Z,100039.52
2022-11-09T05:19:01.669Z,100038.69
2022-11-09T05:21:28.793Z,100039.23
2022-11-09T05:24:03.020Z,100042.73
2022-11-09T05:26:31.568Z,100037.56
2022-11-09T05:28:59.177Z,100040.31
2022-11-09T05:31:26.396Z,100034.95
2022-11-09T05:33:54.300Z,100039.09
2022-11-09T05:36:21.768Z,100041.84
2022-11-09T05:38:48.848Z,100042.39
2022-11-09T05:41:16.145Z,100046.90
2022-11-09T05:43:44.681Z,100045.76
2022-11-09T05:46:11.737Z,100052.52
2022-11-09T05:48:38.686Z,100050.45
2022-11-09T05:51:07.456Z,100050.59
2022-11-09T05:53:34.976Z,100053.16
2022-11-09T05:56:06.620Z,100042.95
2022-11-09T05:58:36.556Z,100043.09
2022-11-09T06:01:03.450Z,100038.71
2022-11-09T06:03:30.328Z,100045.54
2022-11-09T06:06:06.790Z,100045.86
2022-11-09T06:08:35.614Z,100047.58
2022-11-09T06:11:04.857Z,100048.42
2022-11-09T06:13:32.340Z,100046.65
2022-11-09T06:16:00.702Z,100051.58
2022-11-09T06:18:29.188Z,100052.41
2022-11-09T06:20:58.269Z,100050.27
2022-11-09T06:23:25.864Z,100049.00
2022-11-09T06:25:53.587Z,100050.65
2022-11-09T06:28:20.649Z,100052.65
2022-11-09T06:30:47.876Z,100061.56
2022-11-09T06:33:14.804Z,100066.36
2022-11-09T06:35:42.223Z,100064.58
2022-11-09T06:38:19.277Z,100068.67
2022-11-09T06:40:46.514Z,100061.05
2022-11-09T06:43:13.416Z,100062.05
2022-11-09T06:45:40.329Z,100064.22
2022-11-09T06:48:07.769Z,100062.45
2022-11-09T06:50:35.372Z,100058.09
2022-11-09T06:53:04.698Z,100052.14
2022-11-09T06:55:33.271Z,100047.14
2022-11-09T06:58:00.688Z,100046.57
2022-11-09T07:00:29.171Z,100042.98
2022-11-09T07:02:56.254Z,100042.48
2022-11-09T07:05:23.437Z,100037.19
2022-11-09T07:07:50.722Z,100035.31
2022-11-09T07:10:18.122Z,100036.48
2022-11-09T07:12:45.017Z,100036.41
2022-11-09T07:15:13.880Z,100040.61
2022-11-09T07:17:41.375Z,100042.02
2022-11-09T07:20:10.910Z,100038.46
2022-11-09T07:22:40.358Z,100039.02
2022-11-09T07:25:09.789Z,100041.90
2022-11-09T07:27:37.206Z,100041.38
2022-11-09T07:30:05.066Z,100044.64
2022-11-09T07:33:07.407Z,100044.50
2022-11-09T07:35:20.757Z,100046.36
2022-11-09T07:37:47.916Z,100046.59
2022-11-09T07:40:16.153Z,100052.08
2022-11-09T07:42:43.057Z,100053.39
2022-11-09T07:45:11.225Z,100052.98
2022-11-09T07:47:38.061Z,100048.09
2022-11-09T07:50:05.257Z,100046.16
2022-11-09T07:52:32.268Z,100045.02
2022-11-09T07:54:59.156Z,100043.84
2022-11-09T07:57:26.123Z,100049.05
2022-11-09T07:59:53.669Z,100044.73
2022-11-09T08:02:23.661Z,100052.88
2022-11-09T08:04:51.043Z,100048.02
2022-11-09T08:07:17.922Z,100041.58
2022-11-09T08:09:45.266Z,100040.70
2022-11-09T08:12:12.366Z,100039.65
2022-11-09T08:14:39.194Z,100038.91
2022-11-09T08:17:06.185Z,100039.70
2022-11-09T08:19:33.166Z,100036.38
2022-11-09T08:22:00.756Z,100036.45
2022-11-09T08:24:27.734Z,100033.70
2022-11-09T08:26:55.974Z,100034.88
2022-11-09T08:29:23.106Z,100034.73
2022-11-09T08:31:52.066Z,100031.57
2022-11-09T08:34:19.572Z,100031.05
2022-11-09T08:36:46.452Z,100029.23
2022-11-09T08:39:15.778Z,100032.59
2022-11-09T08:41:44.948Z,100030.98
2022-11-09T08:44:11.825Z,100028.18
2022-11-09T08:46:41.396Z,100021.80
2022-11-09T08:49:08.664Z,100019.17
2022-11-09T08:51:35.975Z,100024.52
2022-11-09T08:54:02.872Z,100024.67
2022-11-09T08:56:30.058Z,100021.56
2022-11-09T08:58:57.006Z,100024.27
2022-11-09T09:01:25.461Z,100019.02
2022-11-09T09:03:52.905Z,100018.06
2022-11-09T09:06:20.132Z,100017.73
2022-11-09T09:08:47.146Z,100013.30
2022-11-09T09:11:14.189Z,100015.17
2022-11-09T09:13:43.519Z,100024.99
2022-11-09T09:16:16.286Z,100029.45
2022-11-09T09:18:43.458Z,100031.22
2022-11-09T09:21:13.474Z,100031.57
2022-11-09T09:23:40.688Z,100026.63
2022-11-09T09:26:07.998Z,100032.52
2022-11-09T09:28:34.993Z,100027.97
2022-11-09T09:31:02.810Z,100027.20
2022-11-09T09:33:30.120Z,100019.52
2022-11-09T09:35:59.740Z,100024.19
2022-11-09T09:38:27.219Z,100029.04
2022-11-09T09:40:59.497Z,100033.36
2022-11-09T09:43:32.184Z,100033.86
2022-11-09T09:46:01.934Z,100031.59
2022-11-09T09:48:36.829Z,100025.61
2022-11-09T09:51:10.250Z,100023.41
2022-11-09T09:53:44.473Z,100031.49
2022-11-09T09:56:18.130Z,100027.31
2022-11-09T09:58:50.584Z,100025.67
2022-11-09T10:01:20.208Z,100033.52
2022-11-09T10:03:47.221Z,100030.59
2022-11-09T10:06:31.819Z,100033.17
2022-11-09T10:09:07.444Z,100029.76
2022-11-09T10:11:44.615Z,100028.56
2022-11-09T10:14:31.735Z,100029.80
2022-11-09T10:17:08.766Z,100027.36
2022-11-09T10:19:49.480Z,100030.39
2022-11-09T10:22:23.578Z,100025.73
2022-11-09T10:25:20.725Z,100023.47
2022-11-09T10:27:52.952Z,100023.27
2022-11-09T10:30:22.562Z,100018.75
2022-11-09T10:32:52.592Z,100025.30
2022-11-09T10:35:22.857Z,100018.52
2022-11-09T10:37:52.376Z,100015.21
2022-11-09T10:40:25.214Z,100011.51
2022-11-09T10:43:14.019Z,100016.10
2022-11-09T10:46:05.950Z,100014.25
2022-11-09T10:48:52.136Z,100015.86
2022-11-09T10:51:46.496Z,100014.55
2022-11-09T10:54:35.201Z,100015.67
2022-11-09T10:57:22.509Z,100012.90
2022-11-09T11:00:14.852Z,100006.02
2022-11-09T11:03:10.467Z,100008.29
2022-11-09T11:06:01.417Z,100008.44
2022-11-09T11:08:48.849Z,100009.03
2022-11-09T11:11:36.951Z,100005.34
2022-11-09T11:14:30.308Z,100005.11
2022-11-09T11:17:26.025Z,100004.40
2022-11-09T11:20:38.683Z,100004.55
2022-11-09T11:23:26.320Z,100001.33
2022-11-09T11:26:35.659Z,99997.14
2022-11-09T11:29:33.857Z,99989.45
2022-11-09T11:32:21.866Z,99999.54
2022-11-09T11:35:14.023Z,99995.38
2022-11-09T11:38:12.965Z,99996.50
2022-11-09T11:41:11.481Z,99992.16
2022-11-09T11:44:04.418Z,99991.73
2022-11-09T11:47:10.008Z,99991.25
2022-11-09T11:50:22.490Z,100000.52
2022-11-09T11:53:18.985Z,100003.80
2022-11-09T11:56:27.647Z,100009.98
2022-11-09T11:59:38.892Z,100008.45
2022-11-09T12:03:04.579Z,100004.23
2022-11-09T12:06:12.672Z,100008.27
2022-11-09T12:09:15.480Z,100008.60
2022-11-09T12:12:14.328Z,100006.94
2022-11-09T12:15:28.490Z,99997.61
2022-11-09T12:18:31.217Z,99998.44
2022-11-09T12:21:20.469Z,99988.80
2022-11-09T12:24:16.909Z,99985.98
2022-11-09T12:27:36.581Z,99983.66
2022-11-09T12:30:25.081Z,99978.56
2022-11-09T12:33:15.925Z,99972.66
2022-11-09T12:36:08.413Z,99979.37
2022-11-09T12:39:03.599Z,99977.58
2022-11-09T12:41:51.023Z,99975.98
2022-11-09T12:44:40.013Z,99976.89
2022-11-09T12:47:31.607Z,99978.27
2022-11-09T12:50:20.862Z,99982.72
2022-11-09T12:53:09.191Z,99981.97
2022-11-09T12:55:59.453Z,99982.61
2022-11-09T12:58:45.291Z,99983.61
2022-11-09T13:01:53.219Z,99987.23
2022-11-09T13:04:38.960Z,99989.23
2022-11-09T13:07:43.620Z,99996.43
2022-11-09T13:10:35.450Z,100001.48
2022-11-09T13:13:26.498Z,100001.83
2022-11-09T13:16:34.866Z,100001.62
2022-11-09T13:19:54.384Z,100005.23
2022-11-09T13:23:01.768Z,99998.05
2022-11-09T13:25:54.740Z,99999.81
2022-11-09T13:29:08.148Z,99996.24
2022-11-09T13:32:28.702Z,99994.30
2022-11-09T13:35:44.876Z,99993.50
2022-11-09T13:38:33.303Z,99995.27
2022-11-09T13:41:44.861Z,99991.67
2022-11-09T13:44:34.465Z,99992.70
2022-11-09T13:47:35.236Z,99994.38
2022-11-09T13:50:24.192Z,99999.08
2022-11-09T13:53:31.512Z,99999.45
2022-11-09T13:56:27.055Z,99997.42
2022-11-09T13:59:18.351Z,99992.91
2022-11-09T14:02:04.907Z,99997.64
2022-11-09T14:04:50.832Z,99997.61
2022-11-09T14:07:36.941Z,100000.14
2022-11-09T14:10:30.848Z,100002.63
2022-11-09T14:13:32.166Z,100008.17
2022-11-09T14:16:27.625Z,100007.84
2022-11-09T14:19:27.771Z,100004.56
2022-11-09T14:22:19.757Z,100005.27
2022-11-09T14:25:14.732Z,100014.05
2022-11-09T14:28:00.476Z,100015.11
2022-11-09T14:30:47.873Z,100025.69
2022-11-09T14:33:34.858Z,100029.48
2022-11-09T14:36:20.707Z,100027.29
2022-11-09T14:39:18.539Z,100026.98
2022-11-09T14:42:06.642Z,100030.33
2022-11-09T14:44:58.414Z,100024.31
2022-11-09T14:47:49.213Z,100024.95
2022-11-09T14:50:38.075Z,100021.30
2022-11-09T14:53:27.451Z,100024.21
2022-11-09T14:56:16.301Z,100024.67
2022-11-09T14:59:02.852Z,100022.13
2022-11-09T15:02:02.257Z,100021.34
2022-11-09T15:05:03.214Z,100027.96
2022-11-09T15:07:49.462Z,100023.84
2022-11-09T15:10:35.319Z,100023.75
2022-11-09T15:13:29.211Z,100026.59
2022-11-09T15:16:25.138Z,100019.93
2022-11-09T15:19:23.534Z,100014.23
2022-11-09T15:22:48.378Z,100012.61
2022-11-09T15:25:37.433Z,100014.52
2022-11-09T15:28:26.122Z,100013.49
2022-11-09T15:31:16.735Z,100006.53
2022-11-09T15:34:02.333Z,100006.27
2022-11-09T15:36:56.188Z,100007.58
2022-11-09T15:39:41.755Z,100006.30
2022-11-09T15:42:27.958Z,100001.92
2022-11-09T15:45:17.299Z,100007.45
2022-11-09T15:48:04.161Z,100009.34
2022-11-09T15:50:49.639Z,100015.90
2022-11-09T15:53:35.519Z,100018.84
2022-11-09T15:56:23.535Z,100018.33
2022-11-09T15:59:14.145Z,100020.14
2022-11-09T16:01:59.540Z,100013.27
2022-11-09T16:04:45.757Z,100010.77
2022-11-09T16:07:31.342Z,100009.80
2022-11-09T16:10:17.889Z,100008.62
2022-11-09T16:13:03.721Z,100007.02
2022-11-09T16:15:49.380Z,100005.60
2022-11-09T16:18:37.801Z,100006.44
2022-11-09T16:21:23.904Z,100003.58
2022-11-09T16:24:13.741Z,99998.48
2022-11-09T16:26:59.970Z,100003.13
2022-11-09T16:29:45.913Z,100003.17
2022-11-09T16:32:31.879Z,100009.42
2022-11-09T16:35:27.233Z,100008.17
2022-11-09T16:38:13.260Z,100007.51
2022-11-09T16:41:00.825Z,100009.80
2022-11-09T16:43:48.587Z,100013.76
2022-11-09T16:46:34.894Z,100014.58
2022-11-09T16:49:20.490Z,100017.16
2022-11-09T16:52:07.143Z,100018.65
2022-11-09T16:54:53.255Z,100019.98
2022-11-09T16:57:39.690Z,100022.38
2022-11-09T17:00:33.743Z,100018.11
2022-11-09T17:03:31.937Z,100020.07
2022-11-09T17:06:17.549Z,100014.25
2022-11-09T17:09:03.305Z,100010.38
2022-11-09T17:11:48.850Z,100009.65
2022-11-09T17:14:34.123Z,100014.08
2022-11-09T17:17:22.618Z,100010.17
2022-11-09T17:20:11.136Z,100010.23
2022-11-09T17:23:03.466Z,100012.42
2022-11-09T17:26:04.205Z,100009.38
2022-11-09T17:29:00.037Z,100012.30
2022-11-09T17:31:49.877Z,100012.23
2022-11-09T17:34:40.408Z,100010.64
2022-11-09T17:37:26.383Z,100008.49
2022-11-09T17:40:22.208Z,100009.94
2022-11-09T17:43:09.882Z,100012.64
2022-11-09T17:45:56.928Z,100013.26
2022-11-09T17:48:44.887Z,100010.33
2022-11-09T17:51:31.393Z,100009.35
2022-11-09T17:54:17.183Z,100017.95
2022-11-09T17:57:02.980Z,100012.02
2022-11-09T17:59:48.959Z,100007.11
2022-11-09T18:02:35.244Z,100003.54
2022-11-09T18:05:20.985Z,100013.46
2022-11-09T18:08:17.270Z,100008.83
2022-11-09T18:11:02.912Z,100012.13
2022-11-09T18:13:49.079Z,100009.09
2022-11-09T18:16:34.626Z,100007.00
2022-11-09T18:19:23.227Z,100007.26
2022-11-09T18:22:12.850Z,100007.89
2022-11-09T18:25:01.941Z,100012.50
2022-11-09T18:27:49.246Z,100012.39
2022-11-09T18:30:55.230Z,100015.91
2022-11-09T18:33:41.161Z,100014.20
2022-11-09T18:36:28.025Z,100011.17
2022-11-09T18:39:13.893Z,100015.89
2022-11-09T18:42:01.968Z,100018.46
2022-11-09T18:44:47.788Z,100011.73
2022-11-09T18:47:33.736Z,100017.86
2022-11-09T18:50:21.908Z,100020.59
2022-11-09T18:53:07.557Z,100015.58
2022-11-09T18:55:53.457Z,100013.48
2022-11-09T18:58:39.533Z,100023.55
2022-11-09T19:01:27.280Z,100026.66
2022-11-09T19:04:16.786Z,100025.92
2022-11-09T19:07:00.845Z,100034.17
2022-11-09T19:09:46.960Z,100032.55
2022-11-09T19:12:32.641Z,100032.12
2022-11-09T19:15:20.461Z,100030.65
2022-11-09T19:18:04.494Z,100035.89
2022-11-09T19:20:50.529Z,100036.27
2022-11-09T19:23:36.182Z,100038.88
2022-11-09T19:26:22.341Z,100038.67
2022-11-09T19:29:08.923Z,100045.97
2022-11-09T19:31:55.069Z,100044.41
2022-11-09T19:34:42.813Z,100046.66
2022-11-09T19:37:29.001Z,100051.61
2022-11-09T19:40:15.695Z,100055.19
2022-11-09T19:43:01.334Z,100055.32
2022-11-09T19:45:46.835Z,100048.47
2022-11-09T19:48:34.853Z,100048.69
2022-11-09T19:51:20.901Z,100042.77
2022-11-09T19:54:07.528Z,100035.13
2022-11-09T19:56:52.915Z,100034.84
2022-11-09T19:59:38.268Z,100035.63
2022-11-09T20:02:26.557Z,100035.76
2022-11-09T20:05:12.468Z,100034.35
2022-11-09T20:07:58.170Z,100038.02
2022-11-09T20:10:43.472Z,100043.35
2022-11-09T20:13:29.154Z,100039.48
2022-11-09T20:16:15.167Z,100042.65
2022-11-09T20:19:01.251Z,100040.89
2022-11-09T20:21:47.116Z,100044.98
2022-11-09T20:24:32.537Z,100047.31
2022-11-09T20:27:18.129Z,100047.85
2022-11-09T20:30:04.273Z,100039.47
2022-11-09T20:32:52.873Z,100042.34
2022-11-09T20:35:41.812Z,100050.79
2022-11-09T20:38:32.524Z,100046.80
2022-11-09T20:41:22.909Z,100051.17
2022-11-09T20:44:11.171Z,100057.76
2022-11-09T20:46:56.797Z,100054.64
2022-11-09T20:49:42.369Z,100050.65
2022-11-09T20:52:27.893Z,100051.51
2022-11-09T20:55:15.059Z,100054.02
2022-11-09T20:57:59.157Z,100046.73
2022-11-09T21:00:45.039Z,100035.23
2022-11-09T21:03:30.996Z,100037.45
2022-11-09T21:06:17.392Z,100038.73
2022-11-09T21:09:05.559Z,100039.09
2022-11-09T21:12:08.874Z,100041.20
2022-11-09T21:14:55.087Z,100045.91
2022-11-09T21:17:40.895Z,100040.86
2022-11-09T21:20:26.295Z,100039.30
2022-11-09T21:23:30.852Z,100040.30
2022-11-09T21:26:34.189Z,100040.60
2022-11-09T21:29:38.499Z,100039.88
2022-11-09T21:32:25.115Z,100035.68
2022-11-09T21:35:11.543Z,100038.35
2022-11-09T21:37:58.934Z,100037.44
2022-11-09T21:40:44.411Z,100038.96
2022-11-09T21:43:30.187Z,100043.89
2022-11-09T21:46:16.256Z,100046.67
2022-11-09T21:49:01.821Z,100050.90
2022-11-09T21:51:49.376Z,100043.16
2022-11-09T21:54:35.526Z,100042.02
2022-11-09T21:57:21.340Z,100041.73
2022-11-09T22:00:09.395Z,100044.39
2022-11-09T22:02:54.976Z,100049.80
2022-11-09T22:05:41.811Z,100049.12
2022-11-09T22:08:27.313Z,100047.55
2022-11-09T22:11:14.889Z,100048.20
2022-11-09T22:14:29.881Z,100045.08
2022-11-09T22:17:15.922Z,100041.96
2022-11-09T22:20:19.358Z,100044.71
2022-11-09T22:23:09.083Z,100039.60
2022-11-09T22:25:55.103Z,100041.04
2022-11-09T22:28:40.909Z,100038.21
2022-11-09T22:31:27.205Z,100040.42
2022-11-09T22:34:12.672Z,100041.38
2022-11-09T22:36:58.475Z,100041.94
2022-11-09T22:39:47.281Z,100044.77
2022-11-09T22:42:34.306Z,100043.96
2022-11-09T22:45:19.670Z,100040.02
2022-11-09T22:48:05.170Z,100038.15
2022-11-09T22:50:50.765Z,100034.44
2022-11-09T22:53:36.829Z,100040.66
2022-11-09T22:56:22.774Z,100045.36
2022-11-09T22:59:09.020Z,100045.55
2022-11-09T23:01:54.797Z,100044.67
2022-11-09T23:04:40.766Z,100042.59
2022-11-09T23:07:26.471Z,100037.21
2022-11-09T23:10:12.843Z,100039.27
2022-11-09T23:12:59.167Z,100042.51
2022-11-09T23:15:44.717Z,100044.02
2022-11-09T23:18:48.960Z,100041.39
2022-11-09T23:21:36.346Z,100039.96
2022-11-09T23:24:35.905Z,100030.25
2022-11-09T23:27:21.251Z,100032.96
2022-11-09T23:30:07.559Z,100046.06
2022-11-09T23:32:53.272Z,100054.70
2022-11-09T23:35:38.889Z,100061.40
2022-11-09T23:38:25.219Z,100059.81
2022-11-09T23:41:13.297Z,100057.35
2022-11-09T23:43:59.258Z,100055.56
2022-11-09T23:46:44.861Z,100063.33
2022-11-09T23:49:30.446Z,100066.25
2022-11-09T23:52:16.039Z,100065.36
2022-11-09T23:55:01.459Z,100066.65
2022-11-09T23:57:47.004Z,100059.84
